Panola, AL

7:31 PM CDT on September 02, 2014 (GMT -0500)
Meridian Naval Air Station | Change Station
CLOSE
Current Station
Airport
Location: Meridian NAS,
Elevation: 318 ft
Nearby Weather Stations

Elev 318 ft 32.55 °N, 88.56 °W | Updated 10 minutes ago

Overcast
Overcast
76 °F
Feels Like 76 °F
N
4
Wind Variable Wind from SW

Today
High -- | Low -- °F
--% Chance of Precip.
Yesterday
High -- | Low -- °F
Precip. -- in
6:28 AM 7:16 PM
First Quarter, 56% visible
Pressure 30.02 in
Visibility 10.0 miles
Clouds Few 5500 ft
Mostly Cloudy 11000 ft
Overcast 25000 ft
Dew Point 73 °F
Humidity 91%
Rainfall 0.00 in
Snow Depth Not available.
UV 0 out of 12
Pollen 9.20 out of 12
Air Quality Not available.
Flu Activity Not available.
SPECI KNMM 030021Z 22003KT 10SM FEW055CB BKN110 OVC250 24/23 A3002 RMK AO2 RAE2358 OCNL LTGICCC DSNT SE-SW CB DSNT SE-SW T2 SET P0000 T02440228 $

More Conditions Fewer Conditions

Pressure 30.02 in
Visibility 10.0 miles
Clouds Few 5500 ft
Mostly Cloudy 11000 ft
Overcast 25000 ft
Dew Point 73 °F
Humidity 91%
Rainfall 0.00 in
Snow Depth Not available.
UV 0 out of 12
Pollen 9.20 out of 12
Air Quality Not available.
Flu Activity Not available.
SPECI KNMM 030021Z 22003KT 10SM FEW055CB BKN110 OVC250 24/23 A3002 RMK AO2 RAE2358 OCNL LTGICCC DSNT SE-SW CB DSNT SE-SW T2 SET P0000 T02440228 $

More Conditions Fewer Conditions

10-Day Weather Forecast

Almanac

Astronomy

Sep. 02, 2014 Rise Set
Actual Time 6:28 AM CDT 7:16 PM CDT
Civil Twilight 6:03 AM CDT 7:41 PM CDT
Nautical Twilight 5:33 AM CDT 8:11 PM CDT
Astronomical Twilight 5:02 AM CDT 8:41 PM CDT
Moon 1:50 PM CDT (9/2) No Moon Set
Length of Visible Light 13h 38m
Length of Day
12h 48m
Tomorrow will be 1m 57s shorter.
First Quarter, 56% of the Moon is Illuminated
Today
First Quarter
Sep 8
Full
Sep 15
Last Quarter
Sep 24
New
Oct 1
First Quarter

Today's Extremes

State Highs State Lows

Community

WunderPhotos

Upload Photos

1,749,812 photos uploaded!

Nearby

Snow Depth

Station Depth Elevation
No new snow has been reported.

Earthquake Activity

City Distance Mag. Time & Date
No recent earthquake activity has been reported nearby.
Minimum magnitude displayed is 2.5.

Coastal Water Temperatures

Place Temperature
No Stations Reporting

Nearby Weather Stations